Wilson Maas — 8PSZ — position and weather

sailwx.info

Track history (hours):
 
Tides and Currents Weather Stations Pressure Air Temp Water Temp Dewpoint Dewpoint Depression Visibility Wind Speed Wind Dir Waves Ship Positions

Wilson Maas

Last reported at 2017-Apr-30 00:40 UTC. Time now 2017-Apr-30 01:19 UTC.
Position N 52°46' E 003°57'.

Length 78 m; draft 3.6 m.

Type: Cargo ship. MMSI: 314217000.

Date/timePositionNaut miles runAvg speedWind from/ knotsBaromVisibWave heightAir tempDewpointWater temp
2017-Apr-30 00:40N 52°46' E 003°57'1 8.3
2017-Apr-30 00:30N 52°47' E 003°57'108 9.0
2017-Apr-29 12:29N 54°27' E 005°08'510.0
2017-Apr-29 12:00N 54°31' E 005°10'5 9.9
2017-Apr-29 11:28N 54°36' E 005°12'240 9.5
2017-Apr-28 10:09N 58°36' E 004°58'210.4
2017-Apr-28 10:00N 58°38' E 004°57'510.3
2017-Apr-28 09:30N 58°43' E 004°55'56 9.8
2017-Apr-28 03:47N 59°39' E 004°40'3 9.3
2017-Apr-28 03:30N 59°41' E 004°39'5 9.1
2017-Apr-28 03:00N 59°46' E 004°39'5 9.4
2017-Apr-28 02:30N 59°51' E 004°39'5 9.7
2017-Apr-28 02:00N 59°55' E 004°38'5 9.4
2017-Apr-28 01:30N 59°60' E 004°38'5 9.4
2017-Apr-28 01:00N 60°05' E 004°38'5 9.7
2017-Apr-28 00:30N 60°10' E 004°37'5 9.8
2017-Apr-28 00:00N 60°15' E 004°37'5 9.8
2017-Apr-27 23:31N 60°19' E 004°37'5 9.7
2017-Apr-27 23:00N 60°24' E 004°37'5 9.4
2017-Apr-27 22:30N 60°29' E 004°37'4 9.1
2017-Apr-27 22:00N 60°33' E 004°37'4 8.9
2017-Apr-27 21:30N 60°38' E 004°36'4 8.8
2017-Apr-27 21:00N 60°42' E 004°35'5 9.1
2017-Apr-27 20:30N 60°47' E 004°33'5 9.5
2017-Apr-27 20:00N 60°51' E 004°31'5 9.7
2017-Apr-27 19:30N 60°56' E 004°29'5 9.6
2017-Apr-27 19:00N 61°01' E 004°28'5 9.9
2017-Apr-27 18:30N 61°06' E 004°27'510.2
2017-Apr-27 18:00N 61°11' E 004°26'510.2
2017-Apr-27 17:30N 61°16' E 004°24'510.1
2017-Apr-27 17:00N 61°21' E 004°23'510.0
2017-Apr-27 16:30N 61°26' E 004°21'5 9.6
2017-Apr-27 16:00N 61°31' E 004°21'510.3
2017-Apr-27 15:30N 61°35' E 004°25'510.6
2017-Apr-27 15:00N 61°40' E 004°30'10 9.5
2017-Apr-27 14:00N 61°43' E 004°49'510.3
2017-Apr-27 13:30N 61°45' E 004°59'510.0
2017-Apr-27 13:00N 61°46' E 005°09'4 7.9
2017-Apr-27 12:30N 61°46' E 005°18'0 0.0
2017-Apr-27 11:56N 61°46' E 005°18'0 0.0
2017-Apr-27 11:29N 61°46' E 005°18'0 0.0
2017-Apr-27 10:56N 61°46' E 005°18'0 0.0
2017-Apr-27 10:29N 61°46' E 005°18'0 0.0
2017-Apr-27 09:59N 61°46' E 005°18'0 0.0
2017-Apr-27 09:29N 61°46' E 005°18'0 0.0
2017-Apr-27 08:59N 61°46' E 005°18'0 0.0
2017-Apr-27 08:29N 61°46' E 005°18'0 0.0
2017-Apr-27 07:59N 61°46' E 005°18'0 0.0
2017-Apr-27 07:26N 61°46' E 005°18'0 0.0
2017-Apr-27 06:56N 61°46' E 005°18'0 0.0
2017-Apr-27 06:26N 61°46' E 005°18'0 0.0
2017-Apr-27 05:59N 61°46' E 005°18'0 0.0
2017-Apr-27 05:29N 61°46' E 005°18'0 0.0
2017-Apr-27 04:59N 61°46' E 005°18'0 0.0
2017-Apr-27 04:29N 61°46' E 005°18'0 0.0
2017-Apr-27 03:59N 61°46' E 005°18'0 0.0
2017-Apr-27 03:29N 61°46' E 005°18'0 0.0
2017-Apr-27 02:59N 61°46' E 005°18'0 0.0
2017-Apr-27 02:29N 61°46' E 005°18'0 0.0
2017-Apr-27 01:59N 61°46' E 005°18'0 0.0
2017-Apr-27 01:29N 61°46' E 005°18'0 0.0
2017-Apr-27 00:59N 61°46' E 005°18'0 0.0
2017-Apr-27 00:29N 61°46' E 005°18'0 0.0
2017-Apr-26 23:59N 61°46' E 005°18'0 0.0
2017-Apr-26 23:29N 61°46' E 005°18'0 0.0
2017-Apr-26 22:59N 61°46' E 005°18'0 0.0
2017-Apr-26 22:29N 61°46' E 005°18'0 0.0
2017-Apr-26 21:59N 61°46' E 005°18'0 0.0
2017-Apr-26 21:29N 61°46' E 005°18'0 0.0
2017-Apr-26 20:59N 61°46' E 005°18'0 0.0
2017-Apr-26 20:29N 61°46' E 005°18'0 0.0
2017-Apr-26 19:59N 61°46' E 005°18'0 0.0
2017-Apr-26 19:26N 61°46' E 005°18'0 0.0
2017-Apr-26 18:59N 61°46' E 005°18'0 0.0
2017-Apr-26 18:29N 61°46' E 005°18'0 0.0
2017-Apr-26 17:59N 61°46' E 005°18'0 0.0
2017-Apr-26 17:29N 61°46' E 005°18'0 0.0
2017-Apr-26 16:59N 61°46' E 005°18'0 0.0
2017-Apr-26 16:29N 61°46' E 005°18'0 0.0
2017-Apr-26 15:59N 61°46' E 005°18'0 0.0
2017-Apr-26 15:26N 61°46' E 005°18'0 0.0
2017-Apr-26 14:59N 61°46' E 005°18'0 0.0
2017-Apr-26 14:29N 61°46' E 005°18'0 0.0
2017-Apr-26 13:29N 61°46' E 005°18'0 0.0
2017-Apr-26 12:59N 61°46' E 005°18'0 0.0
2017-Apr-26 12:29N 61°46' E 005°18'0 0.0
2017-Apr-26 11:59N 61°46' E 005°18'0 0.0
2017-Apr-26 11:29N 61°46' E 005°18'0 0.0
2017-Apr-26 10:59N 61°46' E 005°18'0 0.0
2017-Apr-26 10:29N 61°46' E 005°18'0 0.0
2017-Apr-26 09:56N 61°46' E 005°18'0 0.0
2017-Apr-26 09:29N 61°46' E 005°18'0 0.0
2017-Apr-26 08:59N 61°46' E 005°18'0 0.0
2017-Apr-26 08:29N 61°46' E 005°18'0 0.0
2017-Apr-26 07:59N 61°46' E 005°18'0 0.0
2017-Apr-26 07:26N 61°46' E 005°18'0 0.0
2017-Apr-26 06:56N 61°46' E 005°18'0 0.0
2017-Apr-26 06:29N 61°46' E 005°18'0 0.0
2017-Apr-26 05:59N 61°46' E 005°18'0 0.0
2017-Apr-26 05:29N 61°46' E 005°18'0 0.0
2017-Apr-26 04:59N 61°46' E 005°18'0 0.0
2017-Apr-26 04:26N 61°46' E 005°18'0 0.0
2017-Apr-26 03:59N 61°46' E 005°18'0 0.0
2017-Apr-26 03:26N 61°46' E 005°18'0 0.0
2017-Apr-26 02:59N 61°46' E 005°18'0 0.0
2017-Apr-26 02:29N 61°46' E 005°18'0 0.0
2017-Apr-26 01:59N 61°46' E 005°18'0 0.0
2017-Apr-26 01:29N 61°46' E 005°18'0 0.0
2017-Apr-26 00:59N 61°46' E 005°18'0 0.0
2017-Apr-26 00:29N 61°46' E 005°18'0 0.0
2017-Apr-25 23:59N 61°46' E 005°18'0 0.0
2017-Apr-25 23:29N 61°46' E 005°18'0 0.0
2017-Apr-25 22:59N 61°46' E 005°18'0 0.0
2017-Apr-25 22:29N 61°46' E 005°18'0 0.0
2017-Apr-25 21:59N 61°46' E 005°18'0 0.0
2017-Apr-25 21:29N 61°46' E 005°18'0 0.0
2017-Apr-25 20:59N 61°46' E 005°18'0 0.0
2017-Apr-25 20:29N 61°46' E 005°18'0 0.0
2017-Apr-25 19:59N 61°46' E 005°18'0 0.0
2017-Apr-25 19:29N 61°46' E 005°18'0 0.0
2017-Apr-25 18:56N 61°46' E 005°18'0 0.0
2017-Apr-25 18:29N 61°46' E 005°18'0 0.0
2017-Apr-25 17:59N 61°46' E 005°18'0 0.0
2017-Apr-25 17:29N 61°46' E 005°18'0 0.0
2017-Apr-25 16:59N 61°46' E 005°18'0 0.0
2017-Apr-25 16:29N 61°46' E 005°18'0 0.0
2017-Apr-25 15:56N 61°46' E 005°18'0 0.0
2017-Apr-25 15:26N 61°46' E 005°18'0 0.0
2017-Apr-25 14:59N 61°46' E 005°18'0 0.0
2017-Apr-25 13:56N 61°46' E 005°18'0 0.0
2017-Apr-25 13:29N 61°46' E 005°18'0 0.0
2017-Apr-25 12:59N 61°46' E 005°18'0 0.0
2017-Apr-25 12:29N 61°46' E 005°18'0 0.0
2017-Apr-25 11:59N 61°46' E 005°18'0 0.0
2017-Apr-25 11:29N 61°46' E 005°18'0 0.0
2017-Apr-25 10:56N 61°46' E 005°18'0 0.0
2017-Apr-25 10:29N 61°46' E 005°18'0 0.0
2017-Apr-25 09:59N 61°46' E 005°18'0 0.0
2017-Apr-25 09:26N 61°46' E 005°18'0 0.0
2017-Apr-25 08:59N 61°46' E 005°18'0 0.0
2017-Apr-25 08:29N 61°46' E 005°18'0 0.0
2017-Apr-25 07:59N 61°46' E 005°18'0 0.0
2017-Apr-25 07:29N 61°46' E 005°18'0 0.0
2017-Apr-25 06:59N 61°46' E 005°18'0 0.0
2017-Apr-25 06:29N 61°46' E 005°18'0 0.0
2017-Apr-25 05:59N 61°46' E 005°18'0 0.0
2017-Apr-25 05:29N 61°46' E 005°18'0 0.0
2017-Apr-25 04:56N 61°46' E 005°18'0 0.0
2017-Apr-25 04:29N 61°46' E 005°18'0 0.0
2017-Apr-25 03:59N 61°46' E 005°18'0 0.0
2017-Apr-25 03:29N 61°46' E 005°18'0 0.0
2017-Apr-25 02:59N 61°46' E 005°18'0 0.0
2017-Apr-25 02:29N 61°46' E 005°18'0 0.0
2017-Apr-25 01:59N 61°46' E 005°18'0 0.0
2017-Apr-25 01:29N 61°46' E 005°18'0 0.0
2017-Apr-25 00:59N 61°46' E 005°18'0 0.0
2017-Apr-25 00:29N 61°46' E 005°18'0 0.0
2017-Apr-24 23:59N 61°46' E 005°18'0 0.0
2017-Apr-24 23:29N 61°46' E 005°18'0 0.0
2017-Apr-24 22:59N 61°46' E 005°18'0 0.0
2017-Apr-24 22:29N 61°46' E 005°18'0 0.0
2017-Apr-24 21:59N 61°46' E 005°18'0 0.0
2017-Apr-24 21:29N 61°46' E 005°18'0 0.0
2017-Apr-24 20:59N 61°46' E 005°18'0 0.0
2017-Apr-24 20:29N 61°46' E 005°18'0 0.0
2017-Apr-24 19:59N 61°46' E 005°18'0 0.0
2017-Apr-24 19:29N 61°46' E 005°18'0 0.0
2017-Apr-24 18:59N 61°46' E 005°18'0 0.0
2017-Apr-24 18:29N 61°46' E 005°18'0 0.0
2017-Apr-24 17:59N 61°46' E 005°18'0 0.0
2017-Apr-24 17:29N 61°46' E 005°18'0 0.0
2017-Apr-24 16:59N 61°46' E 005°18'0 0.0
2017-Apr-24 16:29N 61°46' E 005°18'0 0.0
2017-Apr-24 15:59N 61°46' E 005°18'0 0.1
2017-Apr-24 15:29N 61°46' E 005°18'0 0.0
2017-Apr-24 14:56N 61°46' E 005°18'0 0.0
2017-Apr-24 14:29N 61°46' E 005°18'0 0.0
2017-Apr-24 13:29N 61°46' E 005°18'0 0.0
2017-Apr-24 12:59N 61°46' E 005°18'0 0.0
2017-Apr-24 12:29N 61°46' E 005°18'0 0.0
2017-Apr-24 11:59N 61°46' E 005°18'0 0.0
2017-Apr-24 11:29N 61°46' E 005°18'0 0.0
2017-Apr-24 10:59N 61°46' E 005°18'0 0.0
2017-Apr-24 10:29N 61°46' E 005°18'0 0.0
2017-Apr-24 09:59N 61°46' E 005°18'0 0.0
2017-Apr-24 09:29N 61°46' E 005°18'0 0.0
2017-Apr-24 08:59N 61°46' E 005°18'0 0.0
2017-Apr-24 08:29N 61°46' E 005°18'0 0.7
2017-Apr-24 08:00N 61°46' E 005°17'5 9.7
2017-Apr-24 07:29N 61°45' E 005°07'5 9.5
2017-Apr-24 07:00N 61°45' E 004°57'5 9.0
2017-Apr-24 06:30N 61°43' E 004°49'5 9.1
2017-Apr-24 06:00N 61°42' E 004°39'4 9.1
2017-Apr-24 05:30N 61°41' E 004°30'4 8.1
2017-Apr-24 05:00N 61°38' E 004°24'4 8.0
2017-Apr-24 04:30N 61°34' E 004°24'4 7.9
2017-Apr-24 04:00N 61°30' E 004°24'4 7.9
2017-Apr-24 03:30N 61°26' E 004°24'4 7.4
2017-Apr-24 03:00N 61°22' E 004°24'3 6.9
2017-Apr-24 02:30N 61°19' E 004°24'4 7.8
2017-Apr-24 02:00N 61°15' E 004°24'4 8.2
2017-Apr-24 01:30N 61°11' E 004°24'4 8.1
2017-Apr-24 01:00N 61°07' E 004°24'4 8.2
2017-Apr-24 00:30N 61°03' E 004°23'4 8.2
2017-Apr-24 00:00N 60°59' E 004°23'4 8.2
2017-Apr-23 23:30N 60°55' E 004°24'4 8.8
2017-Apr-23 23:00N 60°50' E 004°25'5 9.0
2017-Apr-23 22:30N 60°46' E 004°27'4 8.9
2017-Apr-23 22:00N 60°41' E 004°27'4 9.1
2017-Apr-23 21:30N 60°37' E 004°28'5 9.2
2017-Apr-23 21:00N 60°32' E 004°28'5 9.3
2017-Apr-23 20:30N 60°28' E 004°29'5 9.3
2017-Apr-23 20:00N 60°23' E 004°30'5 9.2
2017-Apr-23 19:30N 60°18' E 004°31'5 9.2
2017-Apr-23 19:00N 60°14' E 004°32'5 9.3
2017-Apr-23 18:30N 60°09' E 004°33'5 9.4
2017-Apr-23 18:01N 60°04' E 004°34'510.1
2017-Apr-23 17:30N 59°59' E 004°34'510.3
2017-Apr-23 17:00N 59°54' E 004°35'49 9.6
2017-Apr-23 11:54N 59°06' E 004°52'3 8.4
2017-Apr-23 11:29N 59°03' E 004°55'4 8.0
2017-Apr-23 11:01N 59°00' E 004°60'4 8.1
2017-Apr-23 10:30N 58°57' E 005°04'4 7.8
2017-Apr-23 10:01N 58°54' E 005°08'4 7.4
2017-Apr-23 09:31N 58°50' E 005°12'4 7.2
2017-Apr-23 09:00N 58°47' E 005°16'4 7.4
2017-Apr-23 08:30N 58°44' E 005°20'4 7.4
2017-Apr-23 08:01N 58°41' E 005°23'4 7.5
2017-Apr-23 07:31N 58°38' E 005°27'3 6.8
2017-Apr-23 07:01N 58°35' E 005°31'4 7.1
2017-Apr-23 06:30N 58°32' E 005°35'4 7.3
2017-Apr-23 06:00N 58°29' E 005°39'4 7.4
2017-Apr-23 05:30N 58°27' E 005°44'4 8.1
2017-Apr-23 05:00N 58°24' E 005°49'4 7.9
2017-Apr-23 04:30N 58°21' E 005°55'4 7.9
2017-Apr-23 04:00N 58°19' E 006°01'4 8.1
2017-Apr-23 03:30N 58°16' E 006°07'4 8.0
2017-Apr-23 03:00N 58°13' E 006°12'4 7.8
2017-Apr-23 02:30N 58°11' E 006°18'4 7.7
2017-Apr-23 02:00N 58°08' E 006°23'4 7.3
2017-Apr-23 01:30N 58°06' E 006°28'4 7.7
2017-Apr-23 01:00N 58°04' E 006°34'4 7.3
2017-Apr-23 00:30N 58°02' E 006°40'4 7.3
2017-Apr-23 00:00N 58°00' E 006°47'4 7.7
2017-Apr-22 23:30N 57°59' E 006°53'4 7.8
2017-Apr-22 23:00N 57°57' E 007°00'4 7.9
2017-Apr-22 22:30N 57°56' E 007°07'4 8.3
2017-Apr-22 21:59N 57°56' E 007°15'4 8.8
2017-Apr-22 21:30N 57°56' E 007°23'5 9.4
2017-Apr-22 21:00N 57°57' E 007°32'5 9.5
2017-Apr-22 20:30N 57°57' E 007°41'5 9.7
2017-Apr-22 20:00N 57°59' E 007°50'5 9.7
2017-Apr-22 19:30N 58°00' E 007°58'5 9.9
2017-Apr-22 19:00N 58°02' E 008°07'5 9.7
2017-Apr-22 18:30N 58°04' E 008°15'510.0
2017-Apr-22 18:00N 58°06' E 008°24'5 9.9
2017-Apr-22 17:30N 58°09' E 008°32'510.5
2017-Apr-22 17:00N 58°11' E 008°41'5 9.2
2017-Apr-22 16:30N 58°12' E 008°50'4 8.7
2017-Apr-22 16:00N 58°11' E 008°58'4 9.0
2017-Apr-22 15:30N 58°09' E 009°06'56 8.7
2017-Apr-22 09:01N 57°48' E 010°44'0 7.9
2017-Apr-22 09:00N 57°48' E 010°44'4 8.2
2017-Apr-22 08:30N 57°46' E 010°51'4 8.4
2017-Apr-22 07:59N 57°44' E 010°57'4 8.1
2017-Apr-22 07:30N 57°41' E 011°02'4 7.8
2017-Apr-22 07:00N 57°38' E 011°08'4 7.5
2017-Apr-22 06:30N 57°36' E 011°13'3 7.1
2017-Apr-22 06:00N 57°34' E 011°18'3 6.8
2017-Apr-22 05:30N 57°31' E 011°23'3 6.7
2017-Apr-22 05:00N 57°29' E 011°27'3 5.5
2017-Apr-22 04:30N 57°26' E 011°29'3 5.4
2017-Apr-22 04:00N 57°24' E 011°30'3 5.3
2017-Apr-22 03:30N 57°21' E 011°32'3 5.3
2017-Apr-22 03:00N 57°19' E 011°33'3 5.1
2017-Apr-22 02:31N 57°16' E 011°35'3 5.0
2017-Apr-22 02:00N 57°14' E 011°36'2 4.8
2017-Apr-22 01:31N 57°11' E 011°37'2 4.6
2017-Apr-22 01:00N 57°09' E 011°39'3 4.9
2017-Apr-22 00:30N 57°07' E 011°40'2 4.6
2017-Apr-22 00:00N 57°05' E 011°42'62 5.2
2017-Apr-21 11:57N 56°09' E 012°30'3 7.6
2017-Apr-21 11:30N 56°06' E 012°34'4 7.4
2017-Apr-21 11:00N 56°04' E 012°39'4 7.5
2017-Apr-21 10:30N 56°00' E 012°41'4 8.8
2017-Apr-21 10:00N 55°56' E 012°44'4 8.1
2017-Apr-21 09:30N 55°52' E 012°45'4 8.0
2017-Apr-21 09:00N 55°48' E 012°44'4 8.9
2017-Apr-21 08:30N 55°44' E 012°42'4 8.1
2017-Apr-21 08:00N 55°40' E 012°42'4 7.0
2017-Apr-21 07:30N 55°36' E 012°42'4 7.8
2017-Apr-21 07:00N 55°32' E 012°43'4 8.3
2017-Apr-21 06:30N 55°28' E 012°42'4 8.7
2017-Apr-21 06:00N 55°24' E 012°41'4 8.9
2017-Apr-21 05:30N 55°19' E 012°40'5 9.0
2017-Apr-21 05:00N 55°15' E 012°40'4 7.6
2017-Apr-21 04:30N 55°12' E 012°44'6 8.5
2017-Apr-21 03:46N 55°09' E 012°54'113 8.6
2017-Apr-20 14:41N 53°34' E 014°36'210.4
2017-Apr-20 14:31N 53°32' E 014°38'3 3.5
2017-Apr-20 13:30N 53°29' E 014°37'0 0.0
2017-Apr-20 13:00N 53°29' E 014°37'0 0.0
2017-Apr-20 12:27N 53°29' E 014°37'0 0.0
2017-Apr-20 12:00N 53°29' E 014°37'0 0.0
2017-Apr-20 11:28N 53°29' E 014°37'0 0.0
2017-Apr-20 10:58N 53°29' E 014°37'0 0.0
2017-Apr-20 10:28N 53°29' E 014°37'0 0.0
2017-Apr-20 09:58N 53°29' E 014°37'0 0.0
2017-Apr-20 09:28N 53°29' E 014°37'0 0.0
2017-Apr-20 08:58N 53°29' E 014°37'0 0.0
2017-Apr-20 08:28N 53°29' E 014°37'0 0.0
2017-Apr-20 07:58N 53°29' E 014°37'0 0.0
2017-Apr-20 07:28N 53°29' E 014°37'0 0.0
2017-Apr-20 06:58N 53°29' E 014°37'0 0.0
2017-Apr-20 06:28N 53°29' E 014°37'0 0.0
2017-Apr-20 05:58N 53°29' E 014°37'0 0.0
2017-Apr-20 05:28N 53°29' E 014°37'0 0.0
2017-Apr-20 04:58N 53°29' E 014°37'3 6.9
2017-Apr-20 04:31N 53°25' E 014°36'1 2.1
2017-Apr-20 03:58N 53°24' E 014°36'0 0.0
2017-Apr-20 03:28N 53°24' E 014°36'0 0.0
2017-Apr-20 02:58N 53°24' E 014°36'0 0.0
2017-Apr-20 02:22N 53°24' E 014°36'0 0.0
2017-Apr-20 01:58N 53°24' E 014°36'0 0.0
2017-Apr-20 01:28N 53°24' E 014°36'0 0.0
2017-Apr-20 00:58N 53°24' E 014°36'  
Track history (hours):
 
Tides and Currents Weather Stations Pressure Air Temp Water Temp Dewpoint Dewpoint Depression Visibility Wind Speed Wind Dir Waves Ship Positions

Wilson Maas

Last reported at 2017-Apr-30 00:40 UTC. Time now 2017-Apr-30 01:19 UTC.
Position N 52°46' E 003°57'.

Length 78 m; draft 3.6 m.

Type: Cargo ship. MMSI: 314217000.

Date/timePositionNaut miles runAvg speedWind from/ knotsBaromVisibWave heightAir tempDewpointWater temp
2017-Apr-30 00:40N 52°46' E 003°57'1 8.3
2017-Apr-30 00:30N 52°47' E 003°57'108 9.0
2017-Apr-29 12:29N 54°27' E 005°08'510.0
2017-Apr-29 12:00N 54°31' E 005°10'5 9.9
2017-Apr-29 11:28N 54°36' E 005°12'240 9.5
2017-Apr-28 10:09N 58°36' E 004°58'210.4
2017-Apr-28 10:00N 58°38' E 004°57'510.3
2017-Apr-28 09:30N 58°43' E 004°55'56 9.8
2017-Apr-28 03:47N 59°39' E 004°40'3 9.3
2017-Apr-28 03:30N 59°41' E 004°39'5 9.1
2017-Apr-28 03:00N 59°46' E 004°39'5 9.4
2017-Apr-28 02:30N 59°51' E 004°39'5 9.7
2017-Apr-28 02:00N 59°55' E 004°38'5 9.4
2017-Apr-28 01:30N 59°60' E 004°38'5 9.4
2017-Apr-28 01:00N 60°05' E 004°38'5 9.7
2017-Apr-28 00:30N 60°10' E 004°37'5 9.8
2017-Apr-28 00:00N 60°15' E 004°37'5 9.8
2017-Apr-27 23:31N 60°19' E 004°37'5 9.7
2017-Apr-27 23:00N 60°24' E 004°37'5 9.4
2017-Apr-27 22:30N 60°29' E 004°37'4 9.1
2017-Apr-27 22:00N 60°33' E 004°37'4 8.9
2017-Apr-27 21:30N 60°38' E 004°36'4 8.8
2017-Apr-27 21:00N 60°42' E 004°35'5 9.1
2017-Apr-27 20:30N 60°47' E 004°33'5 9.5
2017-Apr-27 20:00N 60°51' E 004°31'5 9.7
2017-Apr-27 19:30N 60°56' E 004°29'5 9.6
2017-Apr-27 19:00N 61°01' E 004°28'5 9.9
2017-Apr-27 18:30N 61°06' E 004°27'510.2
2017-Apr-27 18:00N 61°11' E 004°26'510.2
2017-Apr-27 17:30N 61°16' E 004°24'510.1
2017-Apr-27 17:00N 61°21' E 004°23'510.0
2017-Apr-27 16:30N 61°26' E 004°21'5 9.6
2017-Apr-27 16:00N 61°31' E 004°21'510.3
2017-Apr-27 15:30N 61°35' E 004°25'510.6
2017-Apr-27 15:00N 61°40' E 004°30'10 9.5
2017-Apr-27 14:00N 61°43' E 004°49'510.3
2017-Apr-27 13:30N 61°45' E 004°59'510.0
2017-Apr-27 13:00N 61°46' E 005°09'4 7.9
2017-Apr-27 12:30N 61°46' E 005°18'0 0.0
2017-Apr-27 11:56N 61°46' E 005°18'0 0.0
2017-Apr-27 11:29N 61°46' E 005°18'0 0.0
2017-Apr-27 10:56N 61°46' E 005°18'0 0.0
2017-Apr-27 10:29N 61°46' E 005°18'0 0.0
2017-Apr-27 09:59N 61°46' E 005°18'0 0.0
2017-Apr-27 09:29N 61°46' E 005°18'0 0.0
2017-Apr-27 08:59N 61°46' E 005°18'0 0.0
2017-Apr-27 08:29N 61°46' E 005°18'0 0.0
2017-Apr-27 07:59N 61°46' E 005°18'0 0.0
2017-Apr-27 07:26N 61°46' E 005°18'0 0.0
2017-Apr-27 06:56N 61°46' E 005°18'0 0.0
2017-Apr-27 06:26N 61°46' E 005°18'0 0.0
2017-Apr-27 05:59N 61°46' E 005°18'0 0.0
2017-Apr-27 05:29N 61°46' E 005°18'0 0.0
2017-Apr-27 04:59N 61°46' E 005°18'0 0.0
2017-Apr-27 04:29N 61°46' E 005°18'0 0.0
2017-Apr-27 03:59N 61°46' E 005°18'0 0.0
2017-Apr-27 03:29N 61°46' E 005°18'0 0.0
2017-Apr-27 02:59N 61°46' E 005°18'0 0.0
2017-Apr-27 02:29N 61°46' E 005°18'0 0.0
2017-Apr-27 01:59N 61°46' E 005°18'0 0.0
2017-Apr-27 01:29N 61°46' E 005°18'0 0.0
2017-Apr-27 00:59N 61°46' E 005°18'0 0.0
2017-Apr-27 00:29N 61°46' E 005°18'0 0.0
2017-Apr-26 23:59N 61°46' E 005°18'0 0.0
2017-Apr-26 23:29N 61°46' E 005°18'0 0.0
2017-Apr-26 22:59N 61°46' E 005°18'0 0.0
2017-Apr-26 22:29N 61°46' E 005°18'0 0.0
2017-Apr-26 21:59N 61°46' E 005°18'0 0.0
2017-Apr-26 21:29N 61°46' E 005°18'0 0.0
2017-Apr-26 20:59N 61°46' E 005°18'0 0.0
2017-Apr-26 20:29N 61°46' E 005°18'0 0.0
2017-Apr-26 19:59N 61°46' E 005°18'0 0.0
2017-Apr-26 19:26N 61°46' E 005°18'0 0.0
2017-Apr-26 18:59N 61°46' E 005°18'0 0.0
2017-Apr-26 18:29N 61°46' E 005°18'0 0.0
2017-Apr-26 17:59N 61°46' E 005°18'0 0.0
2017-Apr-26 17:29N 61°46' E 005°18'0 0.0
2017-Apr-26 16:59N 61°46' E 005°18'0 0.0
2017-Apr-26 16:29N 61°46' E 005°18'0 0.0
2017-Apr-26 15:59N 61°46' E 005°18'0 0.0
2017-Apr-26 15:26N 61°46' E 005°18'0 0.0
2017-Apr-26 14:59N 61°46' E 005°18'0 0.0
2017-Apr-26 14:29N 61°46' E 005°18'0 0.0
2017-Apr-26 13:29N 61°46' E 005°18'0 0.0
2017-Apr-26 12:59N 61°46' E 005°18'0 0.0
2017-Apr-26 12:29N 61°46' E 005°18'0 0.0
2017-Apr-26 11:59N 61°46' E 005°18'0 0.0
2017-Apr-26 11:29N 61°46' E 005°18'0 0.0
2017-Apr-26 10:59N 61°46' E 005°18'0 0.0
2017-Apr-26 10:29N 61°46' E 005°18'0 0.0
2017-Apr-26 09:56N 61°46' E 005°18'0 0.0
2017-Apr-26 09:29N 61°46' E 005°18'0 0.0
2017-Apr-26 08:59N 61°46' E 005°18'0 0.0
2017-Apr-26 08:29N 61°46' E 005°18'0 0.0
2017-Apr-26 07:59N 61°46' E 005°18'0 0.0
2017-Apr-26 07:26N 61°46' E 005°18'0 0.0
2017-Apr-26 06:56N 61°46' E 005°18'0 0.0
2017-Apr-26 06:29N 61°46' E 005°18'0 0.0
2017-Apr-26 05:59N 61°46' E 005°18'0 0.0
2017-Apr-26 05:29N 61°46' E 005°18'0 0.0
2017-Apr-26 04:59N 61°46' E 005°18'0 0.0
2017-Apr-26 04:26N 61°46' E 005°18'0 0.0
2017-Apr-26 03:59N 61°46' E 005°18'0 0.0
2017-Apr-26 03:26N 61°46' E 005°18'0 0.0
2017-Apr-26 02:59N 61°46' E 005°18'0 0.0
2017-Apr-26 02:29N 61°46' E 005°18'0 0.0
2017-Apr-26 01:59N 61°46' E 005°18'0 0.0
2017-Apr-26 01:29N 61°46' E 005°18'0 0.0
2017-Apr-26 00:59N 61°46' E 005°18'0 0.0
2017-Apr-26 00:29N 61°46' E 005°18'0 0.0
2017-Apr-25 23:59N 61°46' E 005°18'0 0.0
2017-Apr-25 23:29N 61°46' E 005°18'0 0.0
2017-Apr-25 22:59N 61°46' E 005°18'0 0.0
2017-Apr-25 22:29N 61°46' E 005°18'0 0.0
2017-Apr-25 21:59N 61°46' E 005°18'0 0.0
2017-Apr-25 21:29N 61°46' E 005°18'0 0.0
2017-Apr-25 20:59N 61°46' E 005°18'0 0.0
2017-Apr-25 20:29N 61°46' E 005°18'0 0.0
2017-Apr-25 19:59N 61°46' E 005°18'0 0.0
2017-Apr-25 19:29N 61°46' E 005°18'0 0.0
2017-Apr-25 18:56N 61°46' E 005°18'0 0.0
2017-Apr-25 18:29N 61°46' E 005°18'0 0.0
2017-Apr-25 17:59N 61°46' E 005°18'0 0.0
2017-Apr-25 17:29N 61°46' E 005°18'0 0.0
2017-Apr-25 16:59N 61°46' E 005°18'0 0.0
2017-Apr-25 16:29N 61°46' E 005°18'0 0.0
2017-Apr-25 15:56N 61°46' E 005°18'0 0.0
2017-Apr-25 15:26N 61°46' E 005°18'0 0.0
2017-Apr-25 14:59N 61°46' E 005°18'0 0.0
2017-Apr-25 13:56N 61°46' E 005°18'0 0.0
2017-Apr-25 13:29N 61°46' E 005°18'0 0.0
2017-Apr-25 12:59N 61°46' E 005°18'0 0.0
2017-Apr-25 12:29N 61°46' E 005°18'0 0.0
2017-Apr-25 11:59N 61°46' E 005°18'0 0.0
2017-Apr-25 11:29N 61°46' E 005°18'0 0.0
2017-Apr-25 10:56N 61°46' E 005°18'0 0.0
2017-Apr-25 10:29N 61°46' E 005°18'0 0.0
2017-Apr-25 09:59N 61°46' E 005°18'0 0.0
2017-Apr-25 09:26N 61°46' E 005°18'0 0.0
2017-Apr-25 08:59N 61°46' E 005°18'0 0.0
2017-Apr-25 08:29N 61°46' E 005°18'0 0.0
2017-Apr-25 07:59N 61°46' E 005°18'0 0.0
2017-Apr-25 07:29N 61°46' E 005°18'0 0.0
2017-Apr-25 06:59N 61°46' E 005°18'0 0.0
2017-Apr-25 06:29N 61°46' E 005°18'0 0.0
2017-Apr-25 05:59N 61°46' E 005°18'0 0.0
2017-Apr-25 05:29N 61°46' E 005°18'0 0.0
2017-Apr-25 04:56N 61°46' E 005°18'0 0.0
2017-Apr-25 04:29N 61°46' E 005°18'0 0.0
2017-Apr-25 03:59N 61°46' E 005°18'0 0.0
2017-Apr-25 03:29N 61°46' E 005°18'0 0.0
2017-Apr-25 02:59N 61°46' E 005°18'0 0.0
2017-Apr-25 02:29N 61°46' E 005°18'0 0.0
2017-Apr-25 01:59N 61°46' E 005°18'0 0.0
2017-Apr-25 01:29N 61°46' E 005°18'0 0.0
2017-Apr-25 00:59N 61°46' E 005°18'0 0.0
2017-Apr-25 00:29N 61°46' E 005°18'0 0.0
2017-Apr-24 23:59N 61°46' E 005°18'0 0.0
2017-Apr-24 23:29N 61°46' E 005°18'0 0.0
2017-Apr-24 22:59N 61°46' E 005°18'0 0.0
2017-Apr-24 22:29N 61°46' E 005°18'0 0.0
2017-Apr-24 21:59N 61°46' E 005°18'0 0.0
2017-Apr-24 21:29N 61°46' E 005°18'0 0.0
2017-Apr-24 20:59N 61°46' E 005°18'0 0.0
2017-Apr-24 20:29N 61°46' E 005°18'0 0.0
2017-Apr-24 19:59N 61°46' E 005°18'0 0.0
2017-Apr-24 19:29N 61°46' E 005°18'0 0.0
2017-Apr-24 18:59N 61°46' E 005°18'0 0.0
2017-Apr-24 18:29N 61°46' E 005°18'0 0.0
2017-Apr-24 17:59N 61°46' E 005°18'0 0.0
2017-Apr-24 17:29N 61°46' E 005°18'0 0.0
2017-Apr-24 16:59N 61°46' E 005°18'0 0.0
2017-Apr-24 16:29N 61°46' E 005°18'0 0.0
2017-Apr-24 15:59N 61°46' E 005°18'0 0.1
2017-Apr-24 15:29N 61°46' E 005°18'0 0.0
2017-Apr-24 14:56N 61°46' E 005°18'0 0.0
2017-Apr-24 14:29N 61°46' E 005°18'0 0.0
2017-Apr-24 13:29N 61°46' E 005°18'0 0.0
2017-Apr-24 12:59N 61°46' E 005°18'0 0.0
2017-Apr-24 12:29N 61°46' E 005°18'0 0.0
2017-Apr-24 11:59N 61°46' E 005°18'0 0.0
2017-Apr-24 11:29N 61°46' E 005°18'0 0.0
2017-Apr-24 10:59N 61°46' E 005°18'0 0.0
2017-Apr-24 10:29N 61°46' E 005°18'0 0.0
2017-Apr-24 09:59N 61°46' E 005°18'0 0.0
2017-Apr-24 09:29N 61°46' E 005°18'0 0.0
2017-Apr-24 08:59N 61°46' E 005°18'0 0.0
2017-Apr-24 08:29N 61°46' E 005°18'0 0.7
2017-Apr-24 08:00N 61°46' E 005°17'5 9.7
2017-Apr-24 07:29N 61°45' E 005°07'5 9.5
2017-Apr-24 07:00N 61°45' E 004°57'5 9.0
2017-Apr-24 06:30N 61°43' E 004°49'5 9.1
2017-Apr-24 06:00N 61°42' E 004°39'4 9.1
2017-Apr-24 05:30N 61°41' E 004°30'4 8.1
2017-Apr-24 05:00N 61°38' E 004°24'4 8.0
2017-Apr-24 04:30N 61°34' E 004°24'4 7.9
2017-Apr-24 04:00N 61°30' E 004°24'4 7.9
2017-Apr-24 03:30N 61°26' E 004°24'4 7.4
2017-Apr-24 03:00N 61°22' E 004°24'3 6.9
2017-Apr-24 02:30N 61°19' E 004°24'4 7.8
2017-Apr-24 02:00N 61°15' E 004°24'4 8.2
2017-Apr-24 01:30N 61°11' E 004°24'4 8.1
2017-Apr-24 01:00N 61°07' E 004°24'4 8.2
2017-Apr-24 00:30N 61°03' E 004°23'4 8.2
2017-Apr-24 00:00N 60°59' E 004°23'4 8.2
2017-Apr-23 23:30N 60°55' E 004°24'4 8.8
2017-Apr-23 23:00N 60°50' E 004°25'5 9.0
2017-Apr-23 22:30N 60°46' E 004°27'4 8.9
2017-Apr-23 22:00N 60°41' E 004°27'4 9.1
2017-Apr-23 21:30N 60°37' E 004°28'5 9.2
2017-Apr-23 21:00N 60°32' E 004°28'5 9.3
2017-Apr-23 20:30N 60°28' E 004°29'5 9.3
2017-Apr-23 20:00N 60°23' E 004°30'5 9.2
2017-Apr-23 19:30N 60°18' E 004°31'5 9.2
2017-Apr-23 19:00N 60°14' E 004°32'5 9.3
2017-Apr-23 18:30N 60°09' E 004°33'5 9.4
2017-Apr-23 18:01N 60°04' E 004°34'510.1
2017-Apr-23 17:30N 59°59' E 004°34'510.3
2017-Apr-23 17:00N 59°54' E 004°35'49 9.6
2017-Apr-23 11:54N 59°06' E 004°52'3 8.4
2017-Apr-23 11:29N 59°03' E 004°55'4 8.0
2017-Apr-23 11:01N 59°00' E 004°60'4 8.1
2017-Apr-23 10:30N 58°57' E 005°04'4 7.8
2017-Apr-23 10:01N 58°54' E 005°08'4 7.4
2017-Apr-23 09:31N 58°50' E 005°12'4 7.2
2017-Apr-23 09:00N 58°47' E 005°16'4 7.4
2017-Apr-23 08:30N 58°44' E 005°20'4 7.4
2017-Apr-23 08:01N 58°41' E 005°23'4 7.5
2017-Apr-23 07:31N 58°38' E 005°27'3 6.8
2017-Apr-23 07:01N 58°35' E 005°31'4 7.1
2017-Apr-23 06:30N 58°32' E 005°35'4 7.3
2017-Apr-23 06:00N 58°29' E 005°39'4 7.4
2017-Apr-23 05:30N 58°27' E 005°44'4 8.1
2017-Apr-23 05:00N 58°24' E 005°49'4 7.9
2017-Apr-23 04:30N 58°21' E 005°55'4 7.9
2017-Apr-23 04:00N 58°19' E 006°01'4 8.1
2017-Apr-23 03:30N 58°16' E 006°07'4 8.0
2017-Apr-23 03:00N 58°13' E 006°12'4 7.8
2017-Apr-23 02:30N 58°11' E 006°18'4 7.7
2017-Apr-23 02:00N 58°08' E 006°23'4 7.3
2017-Apr-23 01:30N 58°06' E 006°28'4 7.7
2017-Apr-23 01:00N 58°04' E 006°34'4 7.3
2017-Apr-23 00:30N 58°02' E 006°40'4 7.3
2017-Apr-23 00:00N 58°00' E 006°47'4 7.7
2017-Apr-22 23:30N 57°59' E 006°53'4 7.8
2017-Apr-22 23:00N 57°57' E 007°00'4 7.9
2017-Apr-22 22:30N 57°56' E 007°07'4 8.3
2017-Apr-22 21:59N 57°56' E 007°15'4 8.8
2017-Apr-22 21:30N 57°56' E 007°23'5 9.4
2017-Apr-22 21:00N 57°57' E 007°32'5 9.5
2017-Apr-22 20:30N 57°57' E 007°41'5 9.7
2017-Apr-22 20:00N 57°59' E 007°50'5 9.7
2017-Apr-22 19:30N 58°00' E 007°58'5 9.9
2017-Apr-22 19:00N 58°02' E 008°07'5 9.7
2017-Apr-22 18:30N 58°04' E 008°15'510.0
2017-Apr-22 18:00N 58°06' E 008°24'5 9.9
2017-Apr-22 17:30N 58°09' E 008°32'510.5
2017-Apr-22 17:00N 58°11' E 008°41'5 9.2
2017-Apr-22 16:30N 58°12' E 008°50'4 8.7
2017-Apr-22 16:00N 58°11' E 008°58'4 9.0
2017-Apr-22 15:30N 58°09' E 009°06'56 8.7
2017-Apr-22 09:01N 57°48' E 010°44'0 7.9
2017-Apr-22 09:00N 57°48' E 010°44'4 8.2
2017-Apr-22 08:30N 57°46' E 010°51'4 8.4
2017-Apr-22 07:59N 57°44' E 010°57'4 8.1
2017-Apr-22 07:30N 57°41' E 011°02'4 7.8
2017-Apr-22 07:00N 57°38' E 011°08'4 7.5
2017-Apr-22 06:30N 57°36' E 011°13'3 7.1
2017-Apr-22 06:00N 57°34' E 011°18'3 6.8
2017-Apr-22 05:30N 57°31' E 011°23'3 6.7
2017-Apr-22 05:00N 57°29' E 011°27'3 5.5
2017-Apr-22 04:30N 57°26' E 011°29'3 5.4
2017-Apr-22 04:00N 57°24' E 011°30'3 5.3
2017-Apr-22 03:30N 57°21' E 011°32'3 5.3
2017-Apr-22 03:00N 57°19' E 011°33'3 5.1
2017-Apr-22 02:31N 57°16' E 011°35'3 5.0
2017-Apr-22 02:00N 57°14' E 011°36'2 4.8
2017-Apr-22 01:31N 57°11' E 011°37'2 4.6
2017-Apr-22 01:00N 57°09' E 011°39'3 4.9
2017-Apr-22 00:30N 57°07' E 011°40'2 4.6
2017-Apr-22 00:00N 57°05' E 011°42'62 5.2
2017-Apr-21 11:57N 56°09' E 012°30'3 7.6
2017-Apr-21 11:30N 56°06' E 012°34'4 7.4
2017-Apr-21 11:00N 56°04' E 012°39'4 7.5
2017-Apr-21 10:30N 56°00' E 012°41'4 8.8
2017-Apr-21 10:00N 55°56' E 012°44'4 8.1
2017-Apr-21 09:30N 55°52' E 012°45'4 8.0
2017-Apr-21 09:00N 55°48' E 012°44'4 8.9
2017-Apr-21 08:30N 55°44' E 012°42'4 8.1
2017-Apr-21 08:00N 55°40' E 012°42'4 7.0
2017-Apr-21 07:30N 55°36' E 012°42'4 7.8
2017-Apr-21 07:00N 55°32' E 012°43'4 8.3
2017-Apr-21 06:30N 55°28' E 012°42'4 8.7
2017-Apr-21 06:00N 55°24' E 012°41'4 8.9
2017-Apr-21 05:30N 55°19' E 012°40'5 9.0
2017-Apr-21 05:00N 55°15' E 012°40'4 7.6
2017-Apr-21 04:30N 55°12' E 012°44'6 8.5
2017-Apr-21 03:46N 55°09' E 012°54'113 8.6
2017-Apr-20 14:41N 53°34' E 014°36'210.4
2017-Apr-20 14:31N 53°32' E 014°38'3 3.5
2017-Apr-20 13:30N 53°29' E 014°37'0 0.0
2017-Apr-20 13:00N 53°29' E 014°37'0 0.0
2017-Apr-20 12:27N 53°29' E 014°37'0 0.0
2017-Apr-20 12:00N 53°29' E 014°37'0 0.0
2017-Apr-20 11:28N 53°29' E 014°37'0 0.0
2017-Apr-20 10:58N 53°29' E 014°37'0 0.0
2017-Apr-20 10:28N 53°29' E 014°37'0 0.0
2017-Apr-20 09:58N 53°29' E 014°37'0 0.0
2017-Apr-20 09:28N 53°29' E 014°37'0 0.0
2017-Apr-20 08:58N 53°29' E 014°37'0 0.0
2017-Apr-20 08:28N 53°29' E 014°37'0 0.0
2017-Apr-20 07:58N 53°29' E 014°37'0 0.0
2017-Apr-20 07:28N 53°29' E 014°37'0 0.0
2017-Apr-20 06:58N 53°29' E 014°37'0 0.0
2017-Apr-20 06:28N 53°29' E 014°37'0 0.0
2017-Apr-20 05:58N 53°29' E 014°37'0 0.0
2017-Apr-20 05:28N 53°29' E 014°37'0 0.0
2017-Apr-20 04:58N 53°29' E 014°37'3 6.9
2017-Apr-20 04:31N 53°25' E 014°36'1 2.1
2017-Apr-20 03:58N 53°24' E 014°36'0 0.0
2017-Apr-20 03:28N 53°24' E 014°36'0 0.0
2017-Apr-20 02:58N 53°24' E 014°36'0 0.0
2017-Apr-20 02:22N 53°24' E 014°36'0 0.0
2017-Apr-20 01:58N 53°24' E 014°36'0 0.0
2017-Apr-20 01:28N 53°24' E 014°36'0 0.0
2017-Apr-20 00:58N 53°24' E 014°36'  

Dump ship's entire track history